Time;durP1;ratioP1;P1;durP2;ratioP2;P2;SDS_P1;SDS_P2;PMS_P1;PMS_P2;Temp;Humidity;BMP_temperature;BMP_pressure;BME280_temperature;BME280_humidity;BME280_pressure;Samples;Min_cycle;Max_cycle;Signal;HPM_P1;HPM_P2
2021/03/20 00:00:52;;;;;;;7.93;6.43;;;5.00;99.90;;;;;;5065072;28;20216;-75
2021/03/20 00:03:19;;;;;;;9.00;6.15;;;5.00;99.90;;;;;;5064966;28;20229;-75
2021/03/20 00:05:46;;;;;;;7.65;6.15;;;5.10;99.90;;;;;;5096966;28;20228;-75
2021/03/20 00:08:17;;;;;;;6.68;5.95;;;5.10;99.90;;;;;;5065689;28;20208;-75
2021/03/20 00:10:45;;;;;;;8.38;6.03;;;5.20;99.90;;;;;;5066252;28;20198;-75
2021/03/20 00:13:12;;;;;;;9.25;6.63;;;5.20;99.90;;;;;;5068465;28;20198;-75
2021/03/20 00:15:40;;;;;;;8.30;6.88;;;5.30;99.90;;;;;;5069111;28;20205;-75
2021/03/20 00:18:07;;;;;;;8.52;6.07;;;5.40;99.90;;;;;;5068585;28;20216;-75
2021/03/20 00:20:36;;;;;;;6.90;5.88;;;5.40;99.90;;;;;;5069078;28;20209;-75
2021/03/20 00:23:03;;;;;;;8.45;6.97;;;5.50;99.90;;;;;;5068400;28;20205;-75
2021/03/20 00:25:30;;;;;;;8.75;7.32;;;5.50;99.90;;;;;;5077582;28;20713;-75
2021/03/20 00:27:58;;;;;;;7.85;6.10;;;5.50;99.90;;;;;;5067610;28;20212;-75
2021/03/20 00:30:26;;;;;;;8.30;6.38;;;5.50;99.90;;;;;;5067892;28;20208;-74
2021/03/20 00:32:52;;;;;;;10.25;6.50;;;5.50;99.90;;;;;;5068588;28;20220;-74
2021/03/20 00:35:21;;;;;;;9.85;5.93;;;5.50;99.90;;;;;;5067718;28;20205;-74
2021/03/20 00:37:49;;;;;;;8.40;6.28;;;5.50;99.90;;;;;;5068035;28;20319;-74
2021/03/20 00:40:19;;;;;;;8.38;5.85;;;5.50;99.90;;;;;;5067337;28;20209;-74
2021/03/20 00:42:46;;;;;;;9.07;6.25;;;5.50;99.90;;;;;;5068060;28;20208;-74
2021/03/20 00:45:15;;;;;;;8.88;6.38;;;5.50;99.90;;;;;;5068200;28;20225;-74
2021/03/20 00:47:42;;;;;;;8.32;6.55;;;5.50;99.90;;;;;;5068234;28;20208;-74
2021/03/20 00:50:11;;;;;;;7.85;5.57;;;5.30;99.90;;;;;;5067656;28;20680;-75
2021/03/20 00:52:37;;;;;;;7.55;5.63;;;5.30;99.90;;;;;;5099969;28;20197;-74
2021/03/20 00:55:05;;;;;;;6.30;5.30;;;5.30;99.90;;;;;;5070526;28;20208;-74
2021/03/20 00:57:31;;;;;;;7.10;5.95;;;5.20;99.90;;;;;;5068178;28;20228;-74
2021/03/20 00:59:58;;;;;;;5.47;4.97;;;5.20;99.90;;;;;;5067501;28;20212;-74
2021/03/20 01:02:26;;;;;;;6.30;5.22;;;5.20;99.90;;;;;;5066379;28;20201;-74
2021/03/20 01:04:52;;;;;;;8.02;5.68;;;5.10;99.90;;;;;;5066965;28;20263;-75
2021/03/20 01:07:19;;;;;;;6.10;5.50;;;4.90;99.90;;;;;;5067461;28;20284;-75
2021/03/20 01:09:46;;;;;;;7.38;6.07;;;4.90;99.90;;;;;;5067101;28;20262;-75
2021/03/20 01:12:12;;;;;;;5.40;4.90;;;4.80;99.90;;;;;;5066975;28;20201;-75
2021/03/20 01:14:39;;;;;;;5.90;5.25;;;4.80;99.90;;;;;;5067882;28;20212;-75
2021/03/20 01:17:05;;;;;;;5.63;4.28;;;4.70;99.90;;;;;;5067019;28;20205;-75
2021/03/20 01:19:33;;;;;;;4.35;3.95;;;4.70;99.90;;;;;;5067214;28;20211;-75
2021/03/20 01:21:59;;;;;;;4.97;4.47;;;4.50;99.90;;;;;;5069642;28;20643;-75
2021/03/20 01:24:26;;;;;;;6.15;4.47;;;4.50;99.90;;;;;;5067238;28;20302;-75
2021/03/20 01:26:52;;;;;;;5.82;4.43;;;4.40;99.90;;;;;;5068869;28;20204;-75
2021/03/20 01:29:19;;;;;;;5.28;4.68;;;4.40;99.90;;;;;;5069193;28;20205;-75
2021/03/20 01:31:45;;;;;;;4.90;3.85;;;4.30;99.90;;;;;;5067436;28;20210;-75
2021/03/20 01:34:12;;;;;;;4.45;3.90;;;4.20;99.90;;;;;;5066729;28;20201;-75
2021/03/20 01:36:39;;;;;;;6.05;3.78;;;4.10;99.90;;;;;;5067310;28;20728;-75
2021/03/20 01:39:06;;;;;;;10.05;4.57;;;4.00;99.90;;;;;;5067015;28;20209;-75
2021/03/20 01:41:33;;;;;;;4.35;3.83;;;3.90;99.90;;;;;;5072549;28;20205;-75
2021/03/20 01:43:59;;;;;;;4.95;3.80;;;3.80;99.90;;;;;;5067352;28;20200;-75
2021/03/20 01:46:40;;;;;;;5.28;4.28;;;3.80;99.90;;;;;;5071622;28;20228;-74
2021/03/20 01:49:19;;;;;;;4.97;4.57;;;3.80;99.90;;;;;;5067021;28;20207;-75
2021/03/20 01:51:55;;;;;;;4.18;3.67;;;3.70;99.90;;;;;;5067212;28;20220;-75
2021/03/20 01:54:23;;;;;;;4.85;3.60;;;3.70;99.90;;;;;;5067107;28;20810;-75
2021/03/20 01:56:51;;;;;;;5.63;3.92;;;3.60;99.90;;;;;;5066055;28;20212;-75
2021/03/20 01:59:18;;;;;;;7.28;3.90;;;3.60;99.90;;;;;;5066794;28;20255;-75
2021/03/20 02:01:45;;;;;;;3.63;3.33;;;3.60;99.90;;;;;;5066376;28;20201;-75
2021/03/20 02:04:11;;;;;;;3.78;3.47;;;3.70;99.90;;;;;;5066541;28;20259;-75
2021/03/20 02:06:38;;;;;;;6.03;3.50;;;3.60;99.90;;;;;;5066750;28;20197;-75
2021/03/20 02:09:08;;;;;;;6.15;3.50;;;3.60;99.90;;;;;;5065901;28;20210;-75
2021/03/20 02:11:39;;;;;;;8.00;4.35;;;3.60;99.90;;;;;;5066247;28;20193;-75
2021/03/20 02:14:12;;;;;;;3.85;3.38;;;3.60;99.90;;;;;;5070141;28;20208;-75
2021/03/20 02:16:47;;;;;;;7.30;5.18;;;3.60;99.90;;;;;;5066188;28;20201;-75
2021/03/20 02:19:23;;;;;;;6.07;4.53;;;3.50;99.90;;;;;;5066315;28;20196;-75
2021/03/20 02:21:55;;;;;;;4.50;4.10;;;3.40;99.90;;;;;;5066125;28;20204;-75
2021/03/20 02:25:13;;;;;;;5.28;3.72;;;3.30;99.90;;;;;;5069508;28;20224;-74
2021/03/20 02:28:30;;;;;;;6.30;3.53;;;3.20;99.90;;;;;;5062000;28;20193;-74
2021/03/20 02:31:19;;;;;;;3.83;3.50;;;3.10;99.90;;;;;;5016288;28;20207;-74
2021/03/20 02:34:04;;;;;;;5.78;3.65;;;3.00;99.90;;;;;;5017431;28;20194;-74
2021/03/20 02:36:37;;;;;;;5.78;3.95;;;3.00;99.90;;;;;;5008196;28;20206;-74
2021/03/20 02:39:09;;;;;;;8.40;3.45;;;2.90;99.90;;;;;;5005606;28;20214;-74
2021/03/20 02:41:46;;;;;;;6.22;3.75;;;2.90;99.90;;;;;;5011268;28;20213;-74
2021/03/20 02:44:19;;;;;;;6.30;3.08;;;2.90;99.90;;;;;;5019617;28;20624;-74
2021/03/20 02:46:52;;;;;;;3.72;2.80;;;2.80;99.90;;;;;;5019252;28;20211;-74
2021/03/20 02:49:26;;;;;;;6.28;2.65;;;2.80;99.90;;;;;;5017191;28;20203;-74
2021/03/20 02:51:58;;;;;;;5.20;3.60;;;2.70;99.90;;;;;;5014386;28;20230;-74
2021/03/20 02:54:31;;;;;;;3.88;3.38;;;2.60;99.90;;;;;;5005343;28;20213;-74
2021/03/20 02:57:02;;;;;;;4.05;2.95;;;2.50;99.90;;;;;;5013717;28;20209;-75
2021/03/20 02:59:34;;;;;;;4.30;3.15;;;2.50;99.90;;;;;;5013253;28;20199;-74
2021/03/20 03:02:04;;;;;;;4.25;3.55;;;2.40;99.90;;;;;;5041576;28;20205;-75
2021/03/20 03:04:37;;;;;;;4.10;3.17;;;2.40;99.90;;;;;;5065438;28;20610;-75
2021/03/20 03:07:08;;;;;;;4.90;3.30;;;2.30;99.90;;;;;;5065672;28;20198;-75
2021/03/20 03:09:38;;;;;;;3.55;3.22;;;2.30;99.90;;;;;;5065553;28;20197;-74
2021/03/20 03:12:09;;;;;;;4.47;3.47;;;2.30;99.90;;;;;;5071253;28;20197;-74
2021/03/20 03:14:40;;;;;;;3.40;3.08;;;2.30;99.90;;;;;;5069354;28;20205;-74
2021/03/20 03:17:08;;;;;;;4.60;3.10;;;2.30;99.90;;;;;;5065733;28;20208;-74
2021/03/20 03:19:44;;;;;;;4.38;2.78;;;2.30;99.90;;;;;;5065327;28;20201;-73
2021/03/20 03:22:14;;;;;;;3.47;2.45;;;2.30;99.90;;;;;;5068167;28;20216;-74
2021/03/20 03:24:44;;;;;;;3.90;2.40;;;2.20;99.90;;;;;;5078677;28;20224;-74
2021/03/20 03:27:15;;;;;;;3.55;2.40;;;2.20;99.90;;;;;;5065523;28;20212;-74
2021/03/20 03:29:43;;;;;;;3.60;2.75;;;2.10;99.90;;;;;;5065484;28;20204;-74
2021/03/20 03:32:15;;;;;;;2.22;2.03;;;2.10;99.90;;;;;;5066776;28;20215;-74
2021/03/20 03:34:51;;;;;;;2.28;2.10;;;2.00;99.90;;;;;;5074904;28;20201;-74
2021/03/20 03:37:24;;;;;;;3.10;2.70;;;2.10;99.90;;;;;;5065109;28;20201;-73
2021/03/20 03:39:54;;;;;;;5.30;2.67;;;2.00;99.90;;;;;;5065433;28;20212;-73
2021/03/20 03:42:22;;;;;;;3.53;2.42;;;2.00;99.90;;;;;;5069401;28;20227;-74
2021/03/20 03:44:52;;;;;;;3.67;1.95;;;2.00;99.90;;;;;;5065029;28;20217;-74
2021/03/20 03:47:20;;;;;;;3.35;3.03;;;1.90;99.90;;;;;;5068593;28;20197;-73
2021/03/20 03:49:49;;;;;;;4.32;3.70;;;1.90;99.90;;;;;;5069446;28;20201;-73
2021/03/20 03:52:16;;;;;;;5.65;3.33;;;1.80;99.90;;;;;;5075282;28;20247;-73
2021/03/20 03:54:43;;;;;;;4.00;2.58;;;1.80;99.90;;;;;;5068701;28;20209;-73
2021/03/20 03:57:28;;;;;;;3.83;3.10;;;1.70;99.90;;;;;;5073824;28;20220;-73
2021/03/20 04:00:09;;;;;;;2.33;2.13;;;1.70;99.90;;;;;;5068845;28;20236;-73
2021/03/20 04:03:13;;;;;;;3.72;2.40;;;1.60;99.90;;;;;;5068747;28;20260;-73
2021/03/20 04:05:49;;;;;;;4.82;2.55;;;1.50;99.90;;;;;;5068519;28;20297;-74
2021/03/20 04:08:23;;;;;;;4.25;2.45;;;1.50;99.90;;;;;;5069184;28;20201;-74
2021/03/20 04:10:56;;;;;;;3.55;2.63;;;1.40;99.90;;;;;;5068309;28;20200;-74
2021/03/20 04:13:29;;;;;;;3.55;2.60;;;1.40;99.90;;;;;;5070087;28;20205;-74
2021/03/20 04:16:07;;;;;;;5.93;3.10;;;1.40;99.90;;;;;;5072315;28;20209;-74
2021/03/20 04:18:44;;;;;;;10.90;2.90;;;1.40;99.90;;;;;;5067929;28;20666;-74
2021/03/20 04:21:24;;;;;;;2.50;2.30;;;1.40;99.90;;;;;;5068711;28;20208;-74
2021/03/20 04:24:03;;;;;;;2.72;2.05;;;1.40;99.90;;;;;;5072011;28;20211;-74
2021/03/20 04:26:35;;;;;;;4.07;2.28;;;1.40;99.90;;;;;;5068274;28;20209;-74
2021/03/20 04:29:09;;;;;;;4.10;3.70;;;1.40;99.90;;;;;;5067882;28;20197;-75
2021/03/20 04:31:40;;;;;;;3.13;2.90;;;1.30;99.90;;;;;;5072140;28;20208;-75
2021/03/20 04:34:14;;;;;;;3.05;2.75;;;1.40;99.90;;;;;;5074857;28;20209;-75
2021/03/20 04:36:45;;;;;;;3.53;2.97;;;1.30;99.90;;;;;;5071948;28;20200;-75
2021/03/20 04:39:16;;;;;;;4.18;3.47;;;1.30;99.90;;;;;;5068223;28;20209;-74
2021/03/20 04:41:44;;;;;;;8.73;2.60;;;1.30;99.90;;;;;;5074677;28;20209;-74
2021/03/20 04:44:12;;;;;;;3.45;3.17;;;1.40;99.90;;;;;;5073586;28;20201;-73
2021/03/20 04:46:39;;;;;;;2.97;2.78;;;1.40;99.90;;;;;;5068167;28;20198;-73
2021/03/20 04:49:17;;;;;;;3.50;2.85;;;1.40;99.90;;;;;;5067485;28;20212;-74
2021/03/20 04:51:49;;;;;;;4.60;3.30;;;1.40;99.90;;;;;;5067588;28;20205;-74
2021/03/20 04:54:18;;;;;;;3.83;2.70;;;1.40;99.90;;;;;;5067604;28;20205;-74
2021/03/20 04:56:52;;;;;;;3.88;3.00;;;1.30;99.90;;;;;;5066827;28;20201;-73
2021/03/20 04:59:31;;;;;;;3.45;2.60;;;1.30;99.90;;;;;;5067407;28;20197;-73
2021/03/20 05:02:04;;;;;;;5.90;2.65;;;1.30;99.90;;;;;;5081156;28;20205;-74
2021/03/20 05:04:35;;;;;;;3.30;3.03;;;1.20;99.90;;;;;;5070837;28;20236;-73
2021/03/20 05:07:03;;;;;;;3.33;2.92;;;1.20;99.90;;;;;;5068256;28;20213;-73
2021/03/20 05:09:30;;;;;;;3.30;3.00;;;1.20;99.90;;;;;;5067047;28;20201;-74
2021/03/20 05:12:00;;;;;;;3.33;3.00;;;1.10;99.90;;;;;;5067036;28;20724;-74
2021/03/20 05:14:35;;;;;;;3.20;2.90;;;1.10;99.90;;;;;;5067457;28;20198;-74
2021/03/20 05:17:03;;;;;;;2.88;2.67;;;1.10;99.90;;;;;;5067064;28;20228;-74
2021/03/20 05:19:30;;;;;;;7.18;4.35;;;1.00;99.90;;;;;;5066906;28;20197;-74
2021/03/20 05:21:57;;;;;;;10.18;3.20;;;0.90;99.90;;;;;;5073639;28;20204;-74
2021/03/20 05:24:28;;;;;;;3.63;3.13;;;0.90;99.90;;;;;;5066545;28;20208;-74
2021/03/20 05:26:55;;;;;;;4.32;3.38;;;0.80;99.90;;;;;;5070989;28;20212;-74
2021/03/20 05:29:23;;;;;;;3.10;2.35;;;0.80;99.90;;;;;;5067018;28;20197;-74
2021/03/20 05:31:50;;;;;;;5.00;3.15;;;0.80;99.90;;;;;;5066539;28;20643;-74
2021/03/20 05:34:20;;;;;;;7.55;2.88;;;0.80;99.90;;;;;;5074127;28;20250;-74
2021/03/20 05:36:47;;;;;;;7.18;2.50;;;0.80;99.90;;;;;;5066706;28;20223;-74
2021/03/20 05:39:15;;;;;;;3.92;2.67;;;0.80;99.90;;;;;;5072177;28;20459;-74
2021/03/20 05:41:58;;;;;;;4.07;2.80;;;0.80;99.90;;;;;;5068590;28;20205;-74
2021/03/20 05:44:57;;;;;;;7.80;2.67;;;0.70;99.90;;;;;;5066882;28;20201;-74
2021/03/20 05:47:36;;;;;;;4.68;3.03;;;0.70;99.90;;;;;;5066417;28;20208;-73
2021/03/20 05:50:12;;;;;;;4.57;3.25;;;0.70;99.90;;;;;;5066774;28;20209;-73
2021/03/20 05:53:02;;;;;;;4.97;3.20;;;0.70;99.90;;;;;;5066488;28;20258;-73
2021/03/20 05:55:42;;;;;;;5.80;3.55;;;0.80;99.90;;;;;;5066625;28;20281;-73
2021/03/20 05:58:27;;;;;;;18.40;4.45;;;0.80;99.90;;;;;;5066520;28;20228;-73
2021/03/20 06:01:03;;;;;;;4.30;2.85;;;0.80;99.90;;;;;;5071913;28;20197;-73
2021/03/20 06:03:51;;;;;;;4.25;3.85;;;0.90;99.90;;;;;;5066513;28;20626;-73
2021/03/20 06:06:41;;;;;;;3.75;3.45;;;1.00;99.90;;;;;;5066182;28;20248;-73
2021/03/20 06:09:20;;;;;;;7.25;3.17;;;0.90;99.90;;;;;;5070335;28;20223;-74
2021/03/20 06:12:02;;;;;;;3.72;3.38;;;1.00;99.90;;;;;;5066443;28;20209;-73
2021/03/20 06:14:45;;;;;;;3.92;3.53;;;0.90;99.90;;;;;;5072308;28;20211;-74
2021/03/20 06:17:20;;;;;;;5.57;3.97;;;1.00;99.90;;;;;;5066177;28;20209;-74
2021/03/20 06:20:16;;;;;;;7.28;3.40;;;1.00;99.90;;;;;;5070246;28;20208;-74
2021/03/20 06:23:10;;;;;;;3.50;3.05;;;1.10;99.90;;;;;;5065016;28;20212;-74
2021/03/20 06:25:52;;;;;;;4.72;3.90;;;1.10;99.90;;;;;;5066098;28;20278;-74
2021/03/20 06:28:24;;;;;;;3.72;3.15;;;1.20;99.90;;;;;;5065605;28;20209;-74
2021/03/20 06:30:59;;;;;;;5.18;3.60;;;1.20;99.90;;;;;;5066185;28;20879;-74
2021/03/20 06:33:29;;;;;;;5.60;3.08;;;1.30;99.90;;;;;;5070578;28;20257;-74
2021/03/20 06:36:00;;;;;;;6.40;2.97;;;1.30;99.90;;;;;;5071184;28;20244;-74
2021/03/20 06:38:33;;;;;;;5.88;3.20;;;1.30;99.90;;;;;;5065808;28;20303;-74
2021/03/20 06:41:08;;;;;;;4.07;2.97;;;1.20;99.90;;;;;;5066942;28;20196;-74
2021/03/20 06:43:40;;;;;;;3.72;3.15;;;1.20;99.90;;;;;;5065991;28;20204;-74
2021/03/20 06:46:16;;;;;;;4.25;3.20;;;1.30;99.90;;;;;;5074934;28;20224;-74
2021/03/20 06:48:43;;;;;;;4.25;2.65;;;1.30;99.90;;;;;;5066067;28;20201;-74
2021/03/20 06:51:10;;;;;;;3.97;3.35;;;1.30;99.90;;;;;;5065501;28;20205;-74
2021/03/20 06:53:43;;;;;;;7.93;4.88;;;1.30;99.90;;;;;;5065570;28;20196;-74
2021/03/20 06:56:12;;;;;;;3.00;2.75;;;1.30;99.90;;;;;;5065519;28;20205;-74
2021/03/20 06:58:41;;;;;;;6.43;3.85;;;1.40;99.90;;;;;;5065638;28;20208;-74
2021/03/20 07:01:23;;;;;;;7.40;3.70;;;1.50;99.90;;;;;;5065422;28;20199;-74
2021/03/20 07:04:09;;;;;;;7.90;3.42;;;1.80;99.90;;;;;;5065076;28;20237;-73
2021/03/20 07:06:47;;;;;;;7.22;4.03;;;2.10;99.90;;;;;;5071404;28;20232;-73
2021/03/20 07:09:13;;;;;;;8.25;3.22;;;2.40;99.90;;;;;;5065646;28;20204;-73
2021/03/20 07:11:43;;;;;;;2.97;2.42;;;2.80;99.90;;;;;;5065105;28;20217;-73
2021/03/20 07:14:13;;;;;;;4.93;3.30;;;3.00;99.90;;;;;;5065085;28;20197;-74
2021/03/20 07:16:53;;;;;;;6.35;3.38;;;3.10;99.90;;;;;;5066117;28;20201;-73
2021/03/20 07:19:19;;;;;;;5.10;3.42;;;3.10;99.90;;;;;;5065411;28;20208;-74
2021/03/20 07:22:01;;;;;;;4.72;2.63;;;3.20;99.90;;;;;;5070102;28;20213;-74
2021/03/20 07:24:33;;;;;;;5.22;3.92;;;3.30;99.90;;;;;;5078052;28;20207;-74
2021/03/20 07:27:03;;;;;;;7.53;3.95;;;3.50;99.90;;;;;;5074930;28;20216;-74
2021/03/20 07:29:44;;;;;;;6.13;3.78;;;3.60;99.90;;;;;;5069300;28;20615;-74
2021/03/20 07:32:16;;;;;;;20.63;3.90;;;3.80;99.90;;;;;;5069145;28;20207;-73
2021/03/20 07:34:43;;;;;;;5.97;3.83;;;3.90;99.90;;;;;;5072170;28;20215;-73
2021/03/20 07:37:21;;;;;;;6.00;3.78;;;4.00;99.90;;;;;;5068944;28;20212;-73
2021/03/20 07:39:50;;;;;;;5.10;3.35;;;4.00;99.90;;;;;;5074593;28;20237;-74
2021/03/20 07:42:30;;;;;;;6.18;3.30;;;4.00;99.90;;;;;;5073697;28;20220;-74
2021/03/20 07:44:59;;;;;;;12.85;3.40;;;4.00;99.90;;;;;;5074545;28;20312;-75
2021/03/20 07:47:28;;;;;;;3.85;3.08;;;3.90;99.90;;;;;;5069163;28;20212;-75
2021/03/20 07:50:24;;;;;;;4.32;3.20;;;4.10;99.90;;;;;;5068891;28;20205;-75
2021/03/20 07:53:13;;;;;;;5.00;3.50;;;4.40;99.90;;;;;;5069308;28;20193;-75
2021/03/20 07:56:20;;;;;;;4.82;3.40;;;5.00;99.90;;;;;;5070598;28;20213;-74
2021/03/20 07:58:49;;;;;;;4.38;3.85;;;6.00;99.90;;;;;;5052236;28;20201;-75
2021/03/20 08:01:26;;;;;;;7.07;3.75;;;7.10;99.90;;;;;;5053346;28;20737;-75
2021/03/20 08:03:57;;;;;;;4.80;3.40;;;8.20;99.90;;;;;;5061130;28;20248;-75
2021/03/20 08:06:25;;;;;;;3.67;3.38;;;9.10;99.90;;;;;;5053067;28;20229;-75
2021/03/20 08:09:11;;;;;;;4.97;2.90;;;9.70;99.90;;;;;;5056990;28;20208;-75
2021/03/20 08:11:38;;;;;;;4.50;3.58;;;10.20;97.20;;;;;;5056956;28;20213;-75
2021/03/20 08:14:11;;;;;;;4.20;3.60;;;10.80;96.30;;;;;;5064541;28;20208;-75
2021/03/20 08:16:38;;;;;;;6.57;3.33;;;11.70;95.30;;;;;;5053858;28;20206;-76
2021/03/20 08:19:13;;;;;;;3.85;3.38;;;12.50;94.70;;;;;;5030372;28;20212;-76
2021/03/20 08:22:09;;;;;;;6.40;3.22;;;13.40;91.40;;;;;;5058661;28;20253;-77
2021/03/20 08:24:56;;;;;;;7.88;3.08;;;14.20;87.10;;;;;;5052069;28;20209;-76
2021/03/20 08:27:32;;;;;;;6.53;2.97;;;14.80;81.90;;;;;;5064782;28;20284;-76
2021/03/20 08:30:23;;;;;;;3.90;3.03;;;15.20;78.10;;;;;;5056596;28;20312;-74
2021/03/20 08:33:31;;;;;;;3.40;3.10;;;15.10;72.90;;;;;;5045891;28;20208;-75
2021/03/20 08:36:07;;;;;;;3.58;2.95;;;15.10;72.90;;;;;;5026271;28;20219;-75
2021/03/20 08:38:52;;;;;;;5.20;3.22;;;15.60;72.30;;;;;;5027567;28;20213;-75
2021/03/20 08:41:29;;;;;;;3.88;2.95;;;16.10;70.80;;;;;;5028678;28;20225;-75
2021/03/20 08:44:22;;;;;;;4.05;2.55;;;16.40;66.90;;;;;;5032470;28;20454;-75
2021/03/20 08:47:00;;;;;;;2.83;2.55;;;16.90;64.60;;;;;;5026064;28;20230;-74
2021/03/20 08:49:39;;;;;;;4.75;2.90;;;16.60;60.50;;;;;;5031903;28;20237;-74
2021/03/20 08:52:19;;;;;;;5.00;3.22;;;16.50;61.60;;;;;;5031116;28;20278;-75
2021/03/20 08:55:18;;;;;;;4.70;3.22;;;16.60;60.90;;;;;;5028731;28;20207;-74
2021/03/20 08:57:53;;;;;;;4.65;2.47;;;16.30;60.70;;;;;;4945889;29;20219;-74
2021/03/20 09:00:24;;;;;;;3.38;3.05;;;16.60;60.00;;;;;;4944458;29;20217;-74
2021/03/20 09:02:55;;;;;;;6.88;3.38;;;16.60;58.80;;;;;;4945774;29;20218;-75
2021/03/20 09:05:28;;;;;;;5.95;3.45;;;16.20;58.70;;;;;;4945396;29;20236;-75
2021/03/20 09:08:00;;;;;;;3.92;3.00;;;16.10;57.40;;;;;;4945666;29;20215;-74
2021/03/20 09:10:32;;;;;;;6.00;3.00;;;15.10;55.60;;;;;;4945133;29;20199;-75
2021/03/20 09:13:13;;;;;;;4.80;3.05;;;14.20;58.80;;;;;;4982862;28;20208;-74
2021/03/20 09:15:46;;;;;;;6.05;2.67;;;14.40;59.30;;;;;;4998001;28;20292;-74
2021/03/20 09:18:16;;;;;;;4.13;2.10;;;14.70;58.50;;;;;;4985700;28;20262;-74
2021/03/20 09:21:15;;;;;;;3.55;2.30;;;14.50;55.40;;;;;;5002630;28;20247;-75
2021/03/20 09:23:45;;;;;;;2.90;2.60;;;14.10;54.70;;;;;;4961004;29;20771;-75
2021/03/20 09:26:33;;;;;;;5.13;2.35;;;14.00;55.90;;;;;;4958557;29;20233;-75
2021/03/20 09:29:15;;;;;;;4.25;2.33;;;13.80;54.20;;;;;;4954757;29;20638;-75
2021/03/20 09:32:07;;;;;;;2.50;2.30;;;14.00;54.70;;;;;;4957247;29;21207;-75
2021/03/20 09:34:58;;;;;;;5.45;2.65;;;14.40;54.90;;;;;;5037685;28;20207;-74
2021/03/20 09:38:00;;;;;;;6.88;3.33;;;15.20;57.30;;;;;;5040730;28;20214;-75
2021/03/20 09:40:58;;;;;;;3.33;3.03;;;16.10;54.90;;;;;;5042143;28;20203;-75
2021/03/20 09:43:44;;;;;;;19.98;5.03;;;16.80;55.40;;;;;;5040142;28;20209;-75
2021/03/20 09:46:47;;;;;;;5.07;2.63;;;17.30;54.60;;;;;;5030519;28;20230;-75
2021/03/20 09:49:56;;;;;;;5.05;2.78;;;17.40;49.40;;;;;;5042085;28;20258;-75
2021/03/20 09:52:38;;;;;;;4.97;2.33;;;16.90;48.10;;;;;;5031781;28;20701;-75
2021/03/20 09:55:43;;;;;;;2.30;1.92;;;15.90;43.90;;;;;;5035905;28;20207;-75
2021/03/20 09:58:38;;;;;;;2.42;1.75;;;15.00;43.70;;;;;;5038614;28;20242;-75
2021/03/20 10:01:19;;;;;;;2.97;2.10;;;14.30;44.00;;;;;;5066656;28;20211;-75
2021/03/20 10:04:24;;;;;;;4.57;2.10;;;13.90;42.80;;;;;;5066164;28;20234;-75
2021/03/20 10:07:15;;;;;;;2.15;1.90;;;13.60;43.80;;;;;;5065249;28;20222;-75
2021/03/20 10:09:53;;;;;;;4.63;3.83;;;13.60;45.20;;;;;;5071976;28;20197;-75
2021/03/20 10:12:26;;;;;;;2.90;2.58;;;13.70;47.50;;;;;;5066440;28;20256;-75
2021/03/20 10:15:23;;;;;;;2.90;2.25;;;13.70;46.40;;;;;;5065661;28;20207;-75
2021/03/20 10:18:23;;;;;;;2.30;2.10;;;13.60;48.90;;;;;;5069469;28;20211;-75
2021/03/20 10:21:13;;;;;;;6.30;2.20;;;14.00;47.60;;;;;;5066603;28;20291;-75
2021/03/20 10:23:43;;;;;;;7.50;2.72;;;14.00;48.00;;;;;;5065111;28;20237;-75
2021/03/20 10:26:22;;;;;;;3.70;2.30;;;13.70;47.80;;;;;;5066249;28;20224;-75
2021/03/20 10:28:53;;;;;;;3.83;2.85;;;13.90;49.10;;;;;;5065798;28;20211;-75
2021/03/20 10:31:21;;;;;;;3.50;2.30;;;13.90;47.60;;;;;;5070979;28;20206;-75
2021/03/20 10:33:49;;;;;;;2.35;2.03;;;14.10;47.90;;;;;;5098223;28;20242;-75
2021/03/20 10:36:29;;;;;;;5.35;2.42;;;14.10;47.70;;;;;;5065535;28;20206;-75
2021/03/20 10:38:56;;;;;;;4.72;2.35;;;13.90;44.10;;;;;;5069463;28;20201;-75
2021/03/20 10:41:26;;;;;;;4.82;2.05;;;13.30;45.20;;;;;;5069692;28;20205;-75
2021/03/20 10:43:55;;;;;;;3.13;2.28;;;12.70;45.80;;;;;;5066666;28;20205;-75
2021/03/20 10:46:25;;;;;;;4.18;2.65;;;12.50;46.90;;;;;;5069626;28;20224;-75
2021/03/20 10:48:54;;;;;;;2.70;2.50;;;12.80;46.30;;;;;;5071622;28;20210;-75
2021/03/20 10:51:23;;;;;;;3.88;2.03;;;12.80;46.10;;;;;;5072148;28;20224;-75
2021/03/20 10:53:52;;;;;;;3.75;2.40;;;12.60;44.40;;;;;;5076926;28;20233;-75
2021/03/20 10:56:36;;;;;;;6.63;3.05;;;12.80;45.10;;;;;;5071816;28;20213;-75
2021/03/20 10:59:14;;;;;;;3.15;1.80;;;13.00;43.60;;;;;;5065545;28;20824;-75
2021/03/20 11:11:27;;;;;;;2.60;2.05;;;13.20;42.60;;;;;;5102854;28;20279;-74
2021/03/20 11:14:04;;;;;;;6.18;1.77;;;13.40;41.20;;;;;;5105820;28;20286;-74
2021/03/20 11:16:31;;;;;;;2.08;1.98;;;13.10;39.70;;;;;;5102945;28;20239;-74
2021/03/20 11:19:04;;;;;;;3.55;2.72;;;12.60;41.00;;;;;;5113660;28;20212;-74
2021/03/20 11:21:34;;;;;;;5.20;2.50;;;12.40;42.60;;;;;;5102542;28;20215;-74
2021/03/20 11:24:04;;;;;;;2.42;2.28;;;12.40;42.70;;;;;;5105612;28;20238;-74
2021/03/20 11:26:39;;;;;;;2.42;2.22;;;12.20;42.20;;;;;;5106092;28;20233;-74
2021/03/20 11:29:08;;;;;;;3.22;2.78;;;12.10;42.80;;;;;;5102544;28;20278;-74
2021/03/20 11:31:49;;;;;;;3.08;2.42;;;12.00;44.70;;;;;;5102351;28;20201;-74
2021/03/20 11:34:24;;;;;;;3.15;2.17;;;12.00;45.40;;;;;;5102296;28;20205;-74
2021/03/20 11:36:52;;;;;;;4.45;2.58;;;12.10;44.50;;;;;;5100894;28;20238;-74
2021/03/20 11:39:19;;;;;;;4.00;1.75;;;12.10;44.40;;;;;;5105897;28;20830;-74
2021/03/20 11:41:58;;;;;;;11.63;3.65;;;12.20;45.00;;;;;;5106967;28;20224;-75
2021/03/20 11:44:26;;;;;;;3.22;2.22;;;12.00;44.40;;;;;;5106425;28;20235;-74
2021/03/20 11:46:57;;;;;;;3.42;2.00;;;11.90;45.40;;;;;;5102002;28;20204;-74
2021/03/20 11:49:31;;;;;;;4.07;2.38;;;11.80;44.00;;;;;;5107513;28;20200;-75
2021/03/20 11:51:58;;;;;;;4.90;2.40;;;11.70;44.70;;;;;;5109648;28;20222;-74
2021/03/20 11:54:33;;;;;;;4.38;2.03;;;11.60;45.50;;;;;;5110990;28;20212;-74
2021/03/20 11:57:05;;;;;;;3.42;2.47;;;11.40;45.20;;;;;;5111333;28;20624;-75
2021/03/20 11:59:38;;;;;;;5.47;2.90;;;11.30;43.40;;;;;;5106895;28;20199;-75
2021/03/20 12:02:07;;;;;;;3.78;2.70;;;11.20;45.20;;;;;;5104780;28;20203;-75
2021/03/20 12:04:34;;;;;;;3.30;2.95;;;11.10;44.80;;;;;;5106479;28;20270;-75
2021/03/20 12:07:23;;;;;;;4.38;2.60;;;11.00;44.80;;;;;;5101958;28;20661;-75
2021/03/20 12:09:51;;;;;;;3.55;2.42;;;10.90;45.30;;;;;;5102340;28;20208;-74
2021/03/20 12:12:20;;;;;;;8.85;2.47;;;10.80;48.30;;;;;;5111771;28;20195;-75
2021/03/20 12:14:48;;;;;;;3.42;2.08;;;10.80;49.00;;;;;;5098782;28;20681;-75
2021/03/20 12:17:19;;;;;;;2.50;2.30;;;10.70;47.70;;;;;;5093310;28;20200;-74
2021/03/20 12:19:55;;;;;;;2.20;2.00;;;10.70;49.00;;;;;;5094998;28;20204;-74
2021/03/20 12:22:38;;;;;;;3.10;2.10;;;10.70;49.30;;;;;;5087878;28;20197;-74
2021/03/20 12:25:22;;;;;;;3.40;2.35;;;10.60;47.80;;;;;;5091809;28;20205;-74
2021/03/20 12:27:51;;;;;;;3.40;3.10;;;10.50;47.40;;;;;;5088801;28;20204;-75
2021/03/20 12:30:27;;;;;;;3.35;2.33;;;10.50;47.40;;;;;;5093599;28;20193;-74
2021/03/20 12:32:54;;;;;;;7.03;2.90;;;10.50;48.60;;;;;;5088401;28;20207;-75
2021/03/20 12:35:29;;;;;;;2.85;2.05;;;10.40;48.40;;;;;;5092633;28;20207;-75
2021/03/20 12:38:13;;;;;;;3.13;2.13;;;10.40;49.10;;;;;;5088542;28;20204;-75
2021/03/20 12:40:46;;;;;;;2.72;2.42;;;10.30;49.40;;;;;;5090119;28;20283;-75
2021/03/20 12:43:22;;;;;;;5.70;4.45;;;10.30;49.40;;;;;;5096422;28;20225;-75
2021/03/20 12:45:49;;;;;;;2.10;1.90;;;10.20;47.50;;;;;;5093572;28;20232;-74
2021/03/20 12:48:17;;;;;;;2.78;2.35;;;10.20;47.60;;;;;;5088099;28;20196;-74
2021/03/20 12:50:44;;;;;;;2.00;1.65;;;10.10;47.40;;;;;;5092236;28;20230;-74
2021/03/20 12:53:11;;;;;;;2.10;1.70;;;10.10;48.00;;;;;;5094276;28;20206;-73
2021/03/20 12:55:37;;;;;;;2.58;2.17;;;10.10;46.60;;;;;;5095450;28;20240;-73
2021/03/20 12:58:06;;;;;;;5.47;2.20;;;10.00;47.10;;;;;;5096776;28;20208;-74
2021/03/20 13:00:38;;;;;;;4.15;3.67;;;10.10;48.60;;;;;;5091129;28;20223;-74
2021/03/20 13:03:06;;;;;;;2.72;2.13;;;10.20;49.00;;;;;;5093123;28;20250;-74
2021/03/20 13:05:35;;;;;;;2.58;2.33;;;10.40;48.10;;;;;;5089114;28;20231;-74
2021/03/20 13:08:02;;;;;;;3.58;2.60;;;10.50;47.70;;;;;;5088148;28;20230;-73
2021/03/20 13:10:29;;;;;;;5.15;2.55;;;10.60;47.20;;;;;;5090541;28;20197;-74
2021/03/20 13:12:56;;;;;;;3.15;2.03;;;10.50;47.20;;;;;;5089811;28;20203;-74
2021/03/20 13:15:24;;;;;;;3.40;1.88;;;10.60;46.90;;;;;;5095275;28;20212;-74
2021/03/20 13:17:51;;;;;;;2.35;2.15;;;10.80;46.20;;;;;;5094707;28;20229;-74
2021/03/20 13:20:21;;;;;;;4.25;2.50;;;10.80;47.80;;;;;;5087529;28;20776;-74
2021/03/20 13:22:48;;;;;;;4.47;2.67;;;10.90;47.90;;;;;;5087200;28;20213;-74
2021/03/20 13:25:24;;;;;;;3.53;2.60;;;10.70;48.90;;;;;;5090424;28;20233;-74
2021/03/20 13:27:50;;;;;;;7.05;4.72;;;10.50;48.70;;;;;;5087147;28;20208;-75
2021/03/20 13:30:21;;;;;;;4.60;3.63;;;10.20;48.80;;;;;;5096150;28;20199;-75
2021/03/20 13:32:49;;;;;;;4.10;2.60;;;10.10;49.60;;;;;;5089431;28;20216;-75
2021/03/20 13:35:16;;;;;;;3.08;2.78;;;10.10;50.00;;;;;;5094060;28;20201;-75
2021/03/20 13:37:43;;;;;;;4.47;3.83;;;10.30;50.90;;;;;;5093742;28;20201;-75
2021/03/20 13:40:11;;;;;;;7.10;3.50;;;10.20;49.80;;;;;;5092764;28;20207;-75